createdAt,value
2022-10-12T00:01:12.801Z,9.60
2022-10-12T00:03:41.791Z,9.20
2022-10-12T00:06:10.393Z,9.30
2022-10-12T00:08:39.242Z,8.40
2022-10-12T00:11:07.581Z,9.30
2022-10-12T00:13:35.508Z,9.20
2022-10-12T00:16:04.441Z,8.80
2022-10-12T00:18:32.498Z,8.77
2022-10-12T00:21:05.954Z,8.83
2022-10-12T00:23:34.547Z,9.00
2022-10-12T00:26:02.959Z,9.00
2022-10-12T00:28:30.767Z,9.27
2022-10-12T00:30:58.351Z,9.23
2022-10-12T00:33:25.923Z,10.57
2022-10-12T00:35:55.247Z,8.30
2022-10-12T00:38:24.422Z,9.50
2022-10-12T00:40:51.940Z,8.43
2022-10-12T00:43:26.867Z,8.77
2022-10-12T00:45:54.553Z,9.30
2022-10-12T00:48:22.927Z,7.63
2022-10-12T00:50:50.867Z,8.00
2022-10-12T00:53:20.465Z,9.27
2022-10-12T00:55:51.535Z,8.67
2022-10-12T00:58:20.123Z,8.03
2022-10-12T01:00:47.942Z,9.20
2022-10-12T01:03:17.732Z,8.70
2022-10-12T01:05:45.223Z,9.50
2022-10-12T01:08:13.095Z,9.17
2022-10-12T01:10:40.689Z,9.13
2022-10-12T01:13:09.830Z,9.00
2022-10-12T01:15:40.255Z,9.70
2022-10-12T01:18:11.413Z,8.43
2022-10-12T01:20:44.911Z,9.00
2022-10-12T01:23:27.382Z,8.30
2022-10-12T01:26:05.819Z,8.27
2022-10-12T01:28:37.272Z,8.30
2022-10-12T01:31:10.754Z,8.43
2022-10-12T01:33:41.840Z,8.33
2022-10-12T01:36:13.471Z,8.47
2022-10-12T01:38:43.895Z,7.43
2022-10-12T01:41:13.870Z,7.30
2022-10-12T01:43:42.691Z,8.07
2022-10-12T01:46:28.537Z,8.60
2022-10-12T01:48:59.073Z,7.83
2022-10-12T01:51:37.143Z,7.90
2022-10-12T01:54:09.885Z,7.97
2022-10-12T01:56:41.156Z,7.90
2022-10-12T01:59:12.094Z,7.90
2022-10-12T02:01:41.868Z,8.40
2022-10-12T02:04:13.320Z,8.83
2022-10-12T02:06:43.831Z,8.37
2022-10-12T02:09:15.747Z,8.43
2022-10-12T02:11:44.759Z,7.93
2022-10-12T02:14:14.964Z,7.73
2022-10-12T02:16:45.046Z,7.53
2022-10-12T02:19:17.177Z,8.33
2022-10-12T02:21:45.985Z,7.13
2022-10-12T02:24:14.343Z,8.10
2022-10-12T02:26:43.256Z,8.10
2022-10-12T02:29:12.521Z,8.53
2022-10-12T02:31:43.878Z,8.47
2022-10-12T02:34:12.374Z,7.93
2022-10-12T02:36:45.606Z,8.00
2022-10-12T02:39:14.313Z,7.90
2022-10-12T02:41:44.126Z,8.27
2022-10-12T02:44:13.022Z,8.33
2022-10-12T02:46:41.063Z,9.03
2022-10-12T02:49:09.185Z,8.20
2022-10-12T02:51:37.131Z,9.07
2022-10-12T02:54:06.078Z,7.90
2022-10-12T02:56:33.622Z,8.73
2022-10-12T02:59:01.392Z,8.20
2022-10-12T03:01:28.913Z,7.80
2022-10-12T03:03:56.661Z,8.13
2022-10-12T03:06:24.185Z,8.33
2022-10-12T03:08:51.685Z,8.80
2022-10-12T03:11:20.512Z,8.60
2022-10-12T03:13:48.395Z,9.00
2022-10-12T03:16:16.055Z,8.23
2022-10-12T03:18:43.895Z,8.37
2022-10-12T03:21:12.338Z,7.83
2022-10-12T03:23:41.726Z,9.20
2022-10-12T03:26:09.669Z,8.40
2022-10-12T03:28:38.775Z,8.30
2022-10-12T03:31:06.506Z,9.33
2022-10-12T03:33:34.104Z,10.37
2022-10-12T03:36:01.906Z,10.27
2022-10-12T03:38:29.557Z,9.30
2022-10-12T03:40:57.574Z,9.27
2022-10-12T03:43:25.032Z,9.13
2022-10-12T03:45:54.501Z,9.47
2022-10-12T03:48:22.081Z,8.93
2022-10-12T03:50:49.925Z,9.30
2022-10-12T03:53:18.579Z,10.07
2022-10-12T03:55:46.303Z,9.20
2022-10-12T03:58:14.463Z,9.00
2022-10-12T04:00:42.193Z,9.43
2022-10-12T04:03:11.074Z,8.77
2022-10-12T04:05:39.910Z,9.60
2022-10-12T04:08:09.596Z,9.37
2022-10-12T04:10:37.053Z,8.83
2022-10-12T04:13:04.652Z,8.97
2022-10-12T04:15:33.063Z,9.10
2022-10-12T04:18:00.523Z,8.97
2022-10-12T04:20:29.625Z,8.93
2022-10-12T04:22:57.462Z,8.70
2022-10-12T04:25:29.287Z,9.13
2022-10-12T04:27:58.512Z,8.60
2022-10-12T04:30:26.019Z,9.03
2022-10-12T04:32:53.739Z,9.40
2022-10-12T04:35:21.414Z,8.97
2022-10-12T04:37:50.288Z,9.70
2022-10-12T04:40:17.883Z,11.63
2022-10-12T04:42:45.746Z,12.00
2022-10-12T04:45:13.189Z,9.37
2022-10-12T04:47:41.047Z,9.70
2022-10-12T04:50:09.225Z,9.63
2022-10-12T04:52:36.753Z,10.27
2022-10-12T04:55:06.047Z,8.93
2022-10-12T04:57:33.981Z,9.50
2022-10-12T05:00:01.507Z,9.10
2022-10-12T05:02:29.022Z,8.83
2022-10-12T05:04:57.116Z,8.53
2022-10-12T05:07:24.841Z,9.30
2022-10-12T05:09:52.287Z,9.40
2022-10-12T05:12:21.495Z,9.90
2022-10-12T05:14:49.007Z,9.07
2022-10-12T05:17:16.465Z,8.57
2022-10-12T05:19:44.257Z,8.70
2022-10-12T05:22:11.850Z,8.90
2022-10-12T05:24:39.347Z,9.50
2022-10-12T05:27:06.966Z,9.47
2022-10-12T05:29:35.790Z,9.40
2022-10-12T05:32:05.238Z,9.20
2022-10-12T05:34:32.808Z,8.83
2022-10-12T05:37:00.431Z,9.37
2022-10-12T05:39:28.048Z,8.83
2022-10-12T05:41:55.871Z,8.40
2022-10-12T05:44:23.372Z,8.90
2022-10-12T05:46:52.716Z,8.90
2022-10-12T05:49:20.180Z,9.97
2022-10-12T05:51:48.180Z,11.20
2022-10-12T05:54:15.664Z,11.80
2022-10-12T05:56:43.521Z,12.27
2022-10-12T05:59:11.379Z,12.03
2022-10-12T06:01:39.536Z,11.40
2022-10-12T06:04:08.321Z,11.93
2022-10-12T06:06:36.131Z,12.07
2022-10-12T06:09:03.633Z,11.00
2022-10-12T06:11:34.068Z,10.40
2022-10-12T06:14:04.654Z,10.70
2022-10-12T06:16:32.146Z,10.80
2022-10-12T06:19:00.368Z,10.30
2022-10-12T06:21:33.576Z,11.93
2022-10-12T06:24:02.147Z,11.60
2022-10-12T06:26:30.549Z,10.00
2022-10-12T06:28:58.177Z,11.50
2022-10-12T06:31:25.756Z,10.67
2022-10-12T06:33:53.479Z,9.80
2022-10-12T06:36:21.270Z,9.87
2022-10-12T06:38:50.112Z,10.60
2022-10-12T06:41:17.675Z,11.20
2022-10-12T06:43:45.365Z,9.33
2022-10-12T06:46:13.098Z,10.07
2022-10-12T06:48:40.780Z,10.20
2022-10-12T06:51:08.291Z,10.10
2022-10-12T06:53:36.559Z,10.63
2022-10-12T06:56:08.000Z,9.53
2022-10-12T06:58:36.017Z,10.10
2022-10-12T07:01:04.115Z,13.30
2022-10-12T07:03:32.110Z,10.83
2022-10-12T07:06:05.769Z,10.00
2022-10-12T07:08:33.505Z,11.87
2022-10-12T07:11:01.576Z,12.50
2022-10-12T07:13:30.583Z,12.67
2022-10-12T07:15:58.375Z,12.37
2022-10-12T07:18:25.913Z,16.57
2022-10-12T07:20:54.960Z,10.53
2022-10-12T07:23:22.483Z,13.60
2022-10-12T07:25:50.616Z,15.10
2022-10-12T07:28:19.197Z,24.70
2022-10-12T07:30:48.821Z,17.90
2022-10-12T07:33:16.422Z,14.70
2022-10-12T07:36:10.727Z,13.33
2022-10-12T07:38:31.709Z,13.30
2022-10-12T07:40:59.879Z,11.93
2022-10-12T07:43:27.742Z,11.20
2022-10-12T07:45:56.788Z,11.70
2022-10-12T07:48:24.439Z,11.03
2022-10-12T07:50:52.187Z,11.70
2022-10-12T07:53:20.500Z,11.00
2022-10-12T07:55:47.955Z,10.10
2022-10-12T07:58:16.657Z,10.73
2022-10-12T08:00:44.306Z,9.10
2022-10-12T08:03:13.328Z,7.30
2022-10-12T08:05:40.800Z,7.47
2022-10-12T08:08:08.789Z,6.70
2022-10-12T08:10:36.379Z,7.07
2022-10-12T08:13:04.171Z,7.57
2022-10-12T08:15:31.674Z,7.30
2022-10-12T08:17:59.431Z,6.10
2022-10-12T08:20:28.439Z,7.60
2022-10-12T08:22:56.135Z,7.43
2022-10-12T08:25:23.810Z,8.10
2022-10-12T08:27:51.323Z,8.17
2022-10-12T08:30:18.962Z,8.30
2022-10-12T08:32:46.919Z,7.30
2022-10-12T08:35:14.483Z,7.90
2022-10-12T08:37:43.761Z,6.90
2022-10-12T08:40:15.063Z,7.20
2022-10-12T08:42:48.530Z,7.40
2022-10-12T08:45:24.677Z,6.40
2022-10-12T08:47:58.072Z,7.43
2022-10-12T08:50:30.163Z,7.10
2022-10-12T08:53:01.244Z,7.97
2022-10-12T08:55:34.174Z,8.07
2022-10-12T08:58:01.911Z,8.50
2022-10-12T09:03:05.629Z,7.40
2022-10-12T09:05:36.164Z,6.43
2022-10-12T09:08:08.949Z,7.03
2022-10-12T09:10:42.479Z,6.80
2022-10-12T09:13:14.128Z,6.90
2022-10-12T09:15:45.779Z,7.60
2022-10-12T09:18:16.359Z,5.03
2022-10-12T09:20:47.213Z,6.30
2022-10-12T09:23:23.185Z,4.40
2022-10-12T09:25:51.191Z,6.23
2022-10-12T09:28:22.936Z,5.03
2022-10-12T09:31:00.707Z,6.17
2022-10-12T09:33:33.559Z,5.50
2022-10-12T09:36:01.393Z,5.33
2022-10-12T09:38:30.313Z,6.80
2022-10-12T09:40:57.843Z,4.90
2022-10-12T09:43:25.618Z,4.80
2022-10-12T09:45:53.422Z,5.00
2022-10-12T09:48:21.950Z,4.80
2022-10-12T09:50:51.031Z,3.43
2022-10-12T09:53:31.199Z,3.63
2022-10-12T09:56:03.753Z,3.67
2022-10-12T09:58:31.629Z,3.90
2022-10-12T10:01:19.385Z,4.60
2022-10-12T10:03:48.311Z,4.17
2022-10-12T10:06:16.272Z,5.90
2022-10-12T10:08:46.418Z,3.60
2022-10-12T10:11:19.912Z,2.73
2022-10-12T10:13:49.752Z,3.70
2022-10-12T10:16:18.124Z,3.00
2022-10-12T10:18:48.606Z,5.07
2022-10-12T10:21:25.604Z,4.17
2022-10-12T10:23:55.353Z,3.13
2022-10-12T10:26:24.011Z,3.17
2022-10-12T10:28:52.518Z,3.40
2022-10-12T10:31:23.071Z,4.17
2022-10-12T10:34:04.685Z,4.23
2022-10-12T10:36:32.992Z,3.77
2022-10-12T10:39:04.937Z,3.37
2022-10-12T10:41:34.323Z,3.17
2022-10-12T10:44:02.985Z,3.70
2022-10-12T10:46:31.767Z,5.23
2022-10-12T10:49:01.985Z,3.10
2022-10-12T10:51:46.221Z,2.97
2022-10-12T10:54:16.098Z,8.50
2022-10-12T10:56:46.889Z,5.20
2022-10-12T10:59:22.494Z,3.90
2022-10-12T11:01:52.385Z,4.20
2022-10-12T11:04:22.166Z,4.07
2022-10-12T11:06:51.365Z,3.20
2022-10-12T11:09:22.852Z,2.20
2022-10-12T11:11:56.006Z,3.57
2022-10-12T11:14:27.830Z,2.47
2022-10-12T11:16:57.560Z,2.63
2022-10-12T11:19:28.866Z,3.60
2022-10-12T11:21:57.778Z,3.20
2022-10-12T11:24:28.543Z,2.77
2022-10-12T11:26:58.829Z,2.67
2022-10-12T11:29:26.711Z,2.50
2022-10-12T11:31:57.140Z,2.87
2022-10-12T11:34:26.132Z,3.27
2022-10-12T11:37:18.219Z,3.27
2022-10-12T11:39:47.927Z,2.90
2022-10-12T11:42:28.489Z,2.37
2022-10-12T11:44:56.156Z,4.30
2022-10-12T11:47:28.973Z,2.33
2022-10-12T11:49:57.908Z,2.43
2022-10-12T11:52:29.014Z,2.40
2022-10-12T11:55:01.877Z,2.03
2022-10-12T11:57:30.852Z,2.50
2022-10-12T11:59:59.741Z,3.67
2022-10-12T12:02:29.644Z,2.80
2022-10-12T12:04:58.797Z,2.60
2022-10-12T12:07:40.447Z,3.17
2022-10-12T12:10:23.141Z,2.43
2022-10-12T12:13:08.185Z,2.47
2022-10-12T12:15:37.165Z,2.63
2022-10-12T12:18:10.256Z,2.20
2022-10-12T12:20:56.557Z,2.97
2022-10-12T12:23:26.336Z,2.33
2022-10-12T12:26:05.251Z,2.23
2022-10-12T12:28:34.042Z,2.50
2022-10-12T12:31:04.193Z,2.70
2022-10-12T12:33:33.262Z,2.80
2022-10-12T12:36:02.472Z,3.10
2022-10-12T12:38:33.736Z,2.43
2022-10-12T12:41:06.117Z,3.50
2022-10-12T12:43:52.283Z,2.60
2022-10-12T12:46:21.722Z,2.77
2022-10-12T12:48:58.965Z,3.07
2022-10-12T12:51:27.800Z,2.67
2022-10-12T12:53:57.656Z,2.20
2022-10-12T12:56:31.986Z,2.23
2022-10-12T12:59:08.338Z,4.30
2022-10-12T13:01:50.047Z,2.40
2022-10-12T13:04:34.567Z,3.73
2022-10-12T13:07:12.728Z,2.70
2022-10-12T13:10:03.354Z,1.97
2022-10-12T13:12:36.347Z,3.07
2022-10-12T13:15:18.826Z,2.20
2022-10-12T13:18:00.714Z,3.93
2022-10-12T13:20:29.997Z,3.23
2022-10-12T13:22:58.876Z,2.80
2022-10-12T13:25:29.591Z,2.77
2022-10-12T13:27:57.791Z,2.10
2022-10-12T13:30:31.429Z,3.23
2022-10-12T13:33:03.861Z,3.00
2022-10-12T13:35:32.989Z,4.40
2022-10-12T13:38:01.723Z,1.50
2022-10-12T13:40:29.832Z,5.50
2022-10-12T13:42:57.624Z,4.40
2022-10-12T13:45:25.351Z,2.13
2022-10-12T13:47:53.075Z,3.43
2022-10-12T13:50:22.163Z,4.87
2022-10-12T13:52:54.028Z,5.73
2022-10-12T13:55:26.600Z,3.30
2022-10-12T13:57:54.112Z,3.67
2022-10-12T14:00:24.911Z,3.50
2022-10-12T14:02:56.207Z,2.03
2022-10-12T14:05:26.419Z,2.47
2022-10-12T14:07:56.275Z,2.00
2022-10-12T14:10:26.208Z,3.20
2022-10-12T14:12:54.636Z,3.10
2022-10-12T14:15:23.195Z,3.20
2022-10-12T14:17:52.381Z,2.47
2022-10-12T14:20:28.884Z,2.37
2022-10-12T14:22:56.852Z,2.07
2022-10-12T14:25:25.324Z,2.67
2022-10-12T14:27:57.092Z,2.40
2022-10-12T14:30:25.391Z,2.60
2022-10-12T14:32:59.368Z,2.30
2022-10-12T14:35:30.165Z,3.40
2022-10-12T14:37:59.071Z,2.90
2022-10-12T14:40:29.673Z,2.90
2022-10-12T14:42:59.723Z,3.73
2022-10-12T14:45:27.741Z,2.10
2022-10-12T14:47:55.559Z,2.37
2022-10-12T14:50:23.957Z,2.87
2022-10-12T14:52:53.393Z,3.30
2022-10-12T14:55:22.517Z,2.53
2022-10-12T14:57:50.620Z,3.17
2022-10-12T15:00:20.098Z,2.87
2022-10-12T15:02:47.687Z,2.67
2022-10-12T15:05:16.318Z,3.00
2022-10-12T15:07:44.526Z,3.60
2022-10-12T15:10:13.582Z,3.03
2022-10-12T15:12:41.785Z,2.80
2022-10-12T15:15:16.495Z,2.83
2022-10-12T15:17:44.713Z,2.70
2022-10-12T15:20:12.437Z,3.00
2022-10-12T15:22:40.113Z,2.60
2022-10-12T15:25:15.846Z,2.83
2022-10-12T15:27:44.690Z,3.37
2022-10-12T15:30:13.024Z,2.40
2022-10-12T15:32:40.879Z,3.90
2022-10-12T15:35:14.601Z,3.33
2022-10-12T15:38:05.127Z,3.50
2022-10-12T15:40:33.780Z,3.60
2022-10-12T15:43:02.582Z,3.37
2022-10-12T15:45:33.092Z,3.10
2022-10-12T15:48:00.802Z,3.40
2022-10-12T15:50:30.241Z,3.00
2022-10-12T15:52:57.974Z,3.63
2022-10-12T15:55:26.548Z,3.07
2022-10-12T15:57:55.055Z,3.57
2022-10-12T16:00:26.053Z,4.20
2022-10-12T16:02:53.987Z,3.77
2022-10-12T16:05:22.934Z,5.40
2022-10-12T16:07:51.004Z,4.80
2022-10-12T16:10:19.668Z,6.00
2022-10-12T16:12:48.674Z,4.00
2022-10-12T16:15:17.511Z,7.00
2022-10-12T16:17:46.374Z,6.40
2022-10-12T16:20:13.853Z,7.83
2022-10-12T16:22:41.572Z,15.83
2022-10-12T16:25:10.456Z,18.53
2022-10-12T16:27:38.560Z,5.47
2022-10-12T16:30:07.447Z,6.60
2022-10-12T16:32:35.111Z,6.50
2022-10-12T16:35:04.703Z,6.50
2022-10-12T16:37:32.663Z,6.97
2022-10-12T16:40:00.276Z,6.00
2022-10-12T16:42:28.160Z,7.57
2022-10-12T16:44:55.651Z,9.30
2022-10-12T16:47:25.126Z,6.73
2022-10-12T16:49:53.761Z,5.07
2022-10-12T16:52:24.638Z,6.80
2022-10-12T16:54:52.301Z,6.20
2022-10-12T16:57:19.796Z,4.80
2022-10-12T16:59:47.673Z,4.53
2022-10-12T17:02:15.824Z,5.57
2022-10-12T17:04:43.471Z,6.50
2022-10-12T17:07:11.286Z,7.23
2022-10-12T17:09:40.126Z,7.30
2022-10-12T17:12:07.924Z,7.53
2022-10-12T17:14:35.764Z,7.20
2022-10-12T17:17:03.236Z,6.33
2022-10-12T17:19:32.238Z,5.23
2022-10-12T17:22:00.950Z,5.17
2022-10-12T17:24:29.711Z,5.10
2022-10-12T17:26:59.595Z,6.10
2022-10-12T17:29:28.792Z,5.97
2022-10-12T17:31:57.010Z,7.47
2022-10-12T17:34:32.910Z,9.67
2022-10-12T17:37:01.425Z,8.83
2022-10-12T17:39:29.807Z,8.20
2022-10-12T17:41:58.837Z,8.17
2022-10-12T17:44:26.879Z,6.63
2022-10-12T17:46:55.213Z,7.10
2022-10-12T17:49:25.045Z,8.83
2022-10-12T17:51:53.065Z,8.10
2022-10-12T17:54:21.032Z,8.83
2022-10-12T17:56:48.639Z,8.60
2022-10-12T17:59:18.951Z,9.83
2022-10-12T18:01:47.247Z,8.70
2022-10-12T18:04:14.770Z,7.83
2022-10-12T18:06:42.814Z,7.83
2022-10-12T18:09:11.941Z,7.60
2022-10-12T18:11:39.837Z,7.53
2022-10-12T18:14:09.268Z,6.63
2022-10-12T18:16:38.613Z,8.40
2022-10-12T18:19:07.595Z,7.97
2022-10-12T18:21:35.629Z,10.17
2022-10-12T18:24:04.499Z,9.67
2022-10-12T18:26:33.069Z,14.73
2022-10-12T18:29:01.568Z,8.70
2022-10-12T18:31:29.583Z,10.77
2022-10-12T18:33:58.679Z,7.80
2022-10-12T18:36:26.944Z,8.70
2022-10-12T18:38:54.843Z,9.67
2022-10-12T18:41:26.137Z,10.17
2022-10-12T18:43:57.930Z,10.20
2022-10-12T18:49:16.329Z,10.40
2022-10-12T18:51:46.036Z,8.53
2022-10-12T18:54:16.746Z,9.23
2022-10-12T18:56:44.741Z,10.43
2022-10-12T18:59:12.957Z,9.17
2022-10-12T19:01:40.711Z,10.00
2022-10-12T19:04:08.246Z,9.20
2022-10-12T19:06:39.102Z,8.40
2022-10-12T19:09:06.890Z,8.70
2022-10-12T19:11:34.575Z,9.43
2022-10-12T19:14:04.511Z,12.33
2022-10-12T19:16:32.614Z,10.73
2022-10-12T19:19:00.708Z,9.27
2022-10-12T19:21:28.931Z,11.63
2022-10-12T19:23:58.208Z,11.63
2022-10-12T19:26:27.702Z,10.17
2022-10-12T19:28:56.582Z,10.87
2022-10-12T19:31:25.147Z,10.50
2022-10-12T19:33:55.040Z,11.13
2022-10-12T19:36:22.711Z,11.27
2022-10-12T19:38:50.475Z,11.17
2022-10-12T19:41:19.355Z,11.77
2022-10-12T19:43:46.953Z,10.57
2022-10-12T19:46:14.795Z,13.13
2022-10-12T19:48:43.069Z,12.37
2022-10-12T19:51:11.519Z,10.90
2022-10-12T19:53:39.578Z,9.37
2022-10-12T19:56:08.425Z,9.87
2022-10-12T19:58:37.366Z,10.17
2022-10-12T20:01:06.472Z,11.77
2022-10-12T20:03:34.314Z,8.97
2022-10-12T20:06:06.140Z,8.33
2022-10-12T20:08:34.223Z,8.80
2022-10-12T20:11:01.708Z,8.10
2022-10-12T20:13:29.647Z,8.90
2022-10-12T20:15:58.471Z,7.37
2022-10-12T20:18:26.886Z,7.87
2022-10-12T20:20:54.499Z,7.73
2022-10-12T20:23:22.422Z,7.90
2022-10-12T20:25:51.928Z,9.03
2022-10-12T20:28:20.743Z,10.50
2022-10-12T20:30:48.274Z,9.53
2022-10-12T20:33:17.284Z,10.60
2022-10-12T20:35:48.489Z,10.73
2022-10-12T20:38:16.148Z,9.43
2022-10-12T20:40:44.064Z,8.37
2022-10-12T20:43:11.603Z,8.27
2022-10-12T20:45:39.228Z,7.70
2022-10-12T20:48:07.329Z,7.77
2022-10-12T20:50:37.901Z,8.00
2022-10-12T20:53:05.422Z,7.70
2022-10-12T20:55:32.891Z,7.20
2022-10-12T20:58:00.586Z,7.57
2022-10-12T21:00:28.087Z,7.53
2022-10-12T21:02:55.976Z,8.40
2022-10-12T21:05:23.559Z,7.80
2022-10-12T21:07:52.449Z,7.67
2022-10-12T21:10:20.076Z,7.77
2022-10-12T21:12:47.818Z,7.57
2022-10-12T21:15:15.533Z,7.77
2022-10-12T21:17:43.130Z,7.23
2022-10-12T21:20:11.140Z,7.60
2022-10-12T21:22:38.744Z,7.43
2022-10-12T21:25:08.337Z,7.27
2022-10-12T21:27:36.166Z,7.17
2022-10-12T21:30:03.869Z,7.47
2022-10-12T21:32:31.701Z,7.43
2022-10-12T21:34:59.457Z,8.03
2022-10-12T21:37:28.586Z,7.13
2022-10-12T21:39:56.435Z,8.30
2022-10-12T21:42:25.664Z,9.43
2022-10-12T21:44:53.279Z,7.83
2022-10-12T21:47:20.839Z,8.53
2022-10-12T21:49:48.336Z,8.83
2022-10-12T21:52:16.305Z,8.17
2022-10-12T21:54:44.002Z,9.07
2022-10-12T21:57:11.953Z,8.67
2022-10-12T21:59:40.773Z,9.30
2022-10-12T22:02:08.330Z,9.03
2022-10-12T22:04:41.039Z,9.00
2022-10-12T22:07:08.597Z,9.83
2022-10-12T22:09:36.426Z,9.40
2022-10-12T22:12:04.178Z,10.67
2022-10-12T22:14:33.016Z,11.73
2022-10-12T22:17:01.929Z,12.43
2022-10-12T22:19:29.578Z,12.53
2022-10-12T22:21:57.256Z,11.90
2022-10-12T22:24:28.187Z,12.80
2022-10-12T22:26:57.029Z,12.93
2022-10-12T22:29:24.727Z,15.23
2022-10-12T22:31:52.251Z,12.20
2022-10-12T22:34:21.046Z,11.30
2022-10-12T22:36:48.612Z,12.00
2022-10-12T22:39:24.843Z,11.40
2022-10-12T22:41:52.527Z,12.83
2022-10-12T22:44:20.116Z,11.80
2022-10-12T22:46:47.898Z,11.13
2022-10-12T22:49:15.506Z,11.50
2022-10-12T22:51:44.507Z,10.40
2022-10-12T22:54:13.859Z,10.70
2022-10-12T22:56:42.406Z,10.27
2022-10-12T22:59:12.857Z,10.37
2022-10-12T23:01:40.753Z,10.00
2022-10-12T23:04:08.385Z,10.60
2022-10-12T23:06:36.062Z,11.70
2022-10-12T23:09:05.111Z,11.30
2022-10-12T23:11:32.857Z,10.40
2022-10-12T23:14:00.273Z,10.40
2022-10-12T23:16:31.459Z,10.20
2022-10-12T23:19:00.916Z,10.70
2022-10-12T23:21:29.153Z,10.10
2022-10-12T23:23:57.067Z,16.17
2022-10-12T23:26:26.497Z,10.30
2022-10-12T23:28:54.570Z,10.80
2022-10-12T23:31:23.555Z,10.03
2022-10-12T23:33:55.362Z,9.60
2022-10-12T23:36:23.193Z,9.83
2022-10-12T23:38:50.715Z,9.10
2022-10-12T23:41:18.529Z,10.57
2022-10-12T23:43:47.436Z,9.87
2022-10-12T23:46:15.605Z,10.33
2022-10-12T23:48:43.787Z,10.20
2022-10-12T23:51:11.621Z,9.70
2022-10-12T23:53:39.636Z,10.73
2022-10-12T23:56:08.017Z,10.87
2022-10-12T23:58:36.120Z,9.67
